sensor_id;sensor_type;location;lat;lon;timestamp;temperature;humidity
9973;DHT22;5027;53.560;10.062;2024-02-14T00:02:26;9.60;99.90
9973;DHT22;5027;53.560;10.062;2024-02-14T00:04:53;9.50;99.90
9973;DHT22;5027;53.560;10.062;2024-02-14T00:07:20;9.60;99.90
9973;DHT22;5027;53.560;10.062;2024-02-14T00:09:48;9.60;99.90
9973;DHT22;5027;53.560;10.062;2024-02-14T00:12:14;9.60;99.90
9973;DHT22;5027;53.560;10.062;2024-02-14T00:14:41;9.50;99.90
9973;DHT22;5027;53.560;10.062;2024-02-14T00:17:09;9.50;99.90
9973;DHT22;5027;53.560;10.062;2024-02-14T00:19:37;9.40;99.90
9973;DHT22;5027;53.560;10.062;2024-02-14T00:22:03;9.50;99.90
9973;DHT22;5027;53.560;10.062;2024-02-14T00:24:30;9.50;99.90
9973;DHT22;5027;53.560;10.062;2024-02-14T00:26:58;9.50;99.90
9973;DHT22;5027;53.560;10.062;2024-02-14T00:29:27;9.50;99.90
9973;DHT22;5027;53.560;10.062;2024-02-14T00:31:53;9.50;99.90
9973;DHT22;5027;53.560;10.062;2024-02-14T00:34:20;9.50;99.90
9973;DHT22;5027;53.560;10.062;2024-02-14T00:36:47;9.50;99.90
9973;DHT22;5027;53.560;10.062;2024-02-14T00:39:14;9.60;99.90
9973;DHT22;5027;53.560;10.062;2024-02-14T00:41:41;9.70;99.90
9973;DHT22;5027;53.560;10.062;2024-02-14T00:44:08;9.60;99.90
9973;DHT22;5027;53.560;10.062;2024-02-14T00:46:34;9.40;99.90
9973;DHT22;5027;53.560;10.062;2024-02-14T00:49:01;9.50;99.90
9973;DHT22;5027;53.560;10.062;2024-02-14T00:51:28;9.50;99.90
9973;DHT22;5027;53.560;10.062;2024-02-14T00:53:55;9.60;99.90
9973;DHT22;5027;53.560;10.062;2024-02-14T00:56:22;9.70;99.90
9973;DHT22;5027;53.560;10.062;2024-02-14T00:58:50;9.70;99.90
9973;DHT22;5027;53.560;10.062;2024-02-14T01:01:17;9.70;99.90
9973;DHT22;5027;53.560;10.062;2024-02-14T01:03:44;9.70;99.90
9973;DHT22;5027;53.560;10.062;2024-02-14T01:06:10;9.70;99.90
9973;DHT22;5027;53.560;10.062;2024-02-14T01:08:37;9.70;99.90
9973;DHT22;5027;53.560;10.062;2024-02-14T01:11:04;9.70;99.90
9973;DHT22;5027;53.560;10.062;2024-02-14T01:13:31;9.70;99.90
9973;DHT22;5027;53.560;10.062;2024-02-14T01:15:57;9.70;99.90
9973;DHT22;5027;53.560;10.062;2024-02-14T01:18:24;9.70;99.90
9973;DHT22;5027;53.560;10.062;2024-02-14T01:20:52;9.70;99.90
9973;DHT22;5027;53.560;10.062;2024-02-14T01:23:20;9.80;99.90
9973;DHT22;5027;53.560;10.062;2024-02-14T01:25:47;9.70;99.90
9973;DHT22;5027;53.560;10.062;2024-02-14T01:28:13;9.70;99.90
9973;DHT22;5027;53.560;10.062;2024-02-14T01:30:40;9.70;99.90
9973;DHT22;5027;53.560;10.062;2024-02-14T01:33:07;9.60;99.90
9973;DHT22;5027;53.560;10.062;2024-02-14T01:35:37;9.60;99.90
9973;DHT22;5027;53.560;10.062;2024-02-14T01:38:05;9.70;99.90
9973;DHT22;5027;53.560;10.062;2024-02-14T01:40:32;9.70;99.90
9973;DHT22;5027;53.560;10.062;2024-02-14T01:42:59;9.60;99.90
9973;DHT22;5027;53.560;10.062;2024-02-14T01:45:27;9.70;99.90
9973;DHT22;5027;53.560;10.062;2024-02-14T01:47:54;9.70;99.90
9973;DHT22;5027;53.560;10.062;2024-02-14T01:50:22;9.70;99.90
9973;DHT22;5027;53.560;10.062;2024-02-14T01:52:58;9.70;99.90
9973;DHT22;5027;53.560;10.062;2024-02-14T01:55:27;9.70;99.90
9973;DHT22;5027;53.560;10.062;2024-02-14T01:57:54;9.60;99.90
9973;DHT22;5027;53.560;10.062;2024-02-14T02:00:21;9.70;99.90
9973;DHT22;5027;53.560;10.062;2024-02-14T02:02:48;9.60;99.90
9973;DHT22;5027;53.560;10.062;2024-02-14T02:05:18;9.60;99.90
9973;DHT22;5027;53.560;10.062;2024-02-14T02:07:46;9.60;99.90
9973;DHT22;5027;53.560;10.062;2024-02-14T02:10:15;9.60;99.90
9973;DHT22;5027;53.560;10.062;2024-02-14T02:12:42;9.60;99.90
9973;DHT22;5027;53.560;10.062;2024-02-14T02:15:09;9.60;99.90
9973;DHT22;5027;53.560;10.062;2024-02-14T02:17:42;9.60;99.90
9973;DHT22;5027;53.560;10.062;2024-02-14T02:20:09;9.60;99.90
9973;DHT22;5027;53.560;10.062;2024-02-14T02:22:36;9.60;99.90
9973;DHT22;5027;53.560;10.062;2024-02-14T02:25:03;9.60;99.90
9973;DHT22;5027;53.560;10.062;2024-02-14T02:27:34;9.60;99.90
9973;DHT22;5027;53.560;10.062;2024-02-14T02:30:05;9.60;99.90
9973;DHT22;5027;53.560;10.062;2024-02-14T02:32:33;9.50;99.90
9973;DHT22;5027;53.560;10.062;2024-02-14T02:34:59;9.60;99.90
9973;DHT22;5027;53.560;10.062;2024-02-14T02:37:27;9.60;99.90
9973;DHT22;5027;53.560;10.062;2024-02-14T02:39:56;9.60;99.90
9973;DHT22;5027;53.560;10.062;2024-02-14T02:42:23;9.60;99.90
9973;DHT22;5027;53.560;10.062;2024-02-14T02:44:53;9.50;99.90
9973;DHT22;5027;53.560;10.062;2024-02-14T02:47:20;9.60;99.90
9973;DHT22;5027;53.560;10.062;2024-02-14T02:49:47;9.60;99.90
9973;DHT22;5027;53.560;10.062;2024-02-14T02:52:13;9.60;99.90
9973;DHT22;5027;53.560;10.062;2024-02-14T02:54:41;9.50;99.90
9973;DHT22;5027;53.560;10.062;2024-02-14T02:57:10;9.60;99.90
9973;DHT22;5027;53.560;10.062;2024-02-14T02:59:38;9.50;99.90
9973;DHT22;5027;53.560;10.062;2024-02-14T03:02:09;9.50;99.90
9973;DHT22;5027;53.560;10.062;2024-02-14T03:04:38;9.50;99.90
9973;DHT22;5027;53.560;10.062;2024-02-14T03:07:18;9.40;99.90
9973;DHT22;5027;53.560;10.062;2024-02-14T03:09:46;9.40;99.90
9973;DHT22;5027;53.560;10.062;2024-02-14T03:12:12;9.40;99.90
9973;DHT22;5027;53.560;10.062;2024-02-14T03:14:43;9.40;99.90
9973;DHT22;5027;53.560;10.062;2024-02-14T03:17:10;9.40;99.90
9973;DHT22;5027;53.560;10.062;2024-02-14T03:19:37;9.40;99.90
9973;DHT22;5027;53.560;10.062;2024-02-14T03:22:05;9.50;99.90
9973;DHT22;5027;53.560;10.062;2024-02-14T03:24:36;9.40;99.90
9973;DHT22;5027;53.560;10.062;2024-02-14T03:27:04;9.50;99.90
9973;DHT22;5027;53.560;10.062;2024-02-14T03:29:33;9.40;99.90
9973;DHT22;5027;53.560;10.062;2024-02-14T03:32:02;9.40;99.90
9973;DHT22;5027;53.560;10.062;2024-02-14T03:34:31;9.40;99.90
9973;DHT22;5027;53.560;10.062;2024-02-14T03:37:02;9.40;99.90
9973;DHT22;5027;53.560;10.062;2024-02-14T03:39:29;9.40;99.90
9973;DHT22;5027;53.560;10.062;2024-02-14T03:41:58;9.40;99.90
9973;DHT22;5027;53.560;10.062;2024-02-14T03:44:28;9.40;99.90
9973;DHT22;5027;53.560;10.062;2024-02-14T03:46:54;9.40;99.90
9973;DHT22;5027;53.560;10.062;2024-02-14T03:49:22;9.40;99.90
9973;DHT22;5027;53.560;10.062;2024-02-14T03:51:48;9.40;99.90
9973;DHT22;5027;53.560;10.062;2024-02-14T03:54:20;9.40;99.90
9973;DHT22;5027;53.560;10.062;2024-02-14T03:56:47;9.40;99.90
9973;DHT22;5027;53.560;10.062;2024-02-14T03:59:14;9.30;99.90
9973;DHT22;5027;53.560;10.062;2024-02-14T04:01:44;9.30;99.90
9973;DHT22;5027;53.560;10.062;2024-02-14T04:04:14;9.30;99.90
9973;DHT22;5027;53.560;10.062;2024-02-14T04:06:41;9.30;99.90
9973;DHT22;5027;53.560;10.062;2024-02-14T04:09:09;9.20;99.90
9973;DHT22;5027;53.560;10.062;2024-02-14T04:11:36;9.20;99.90
9973;DHT22;5027;53.560;10.062;2024-02-14T04:14:03;9.20;99.90
9973;DHT22;5027;53.560;10.062;2024-02-14T04:16:29;9.20;99.90
9973;DHT22;5027;53.560;10.062;2024-02-14T04:18:56;9.20;99.90
9973;DHT22;5027;53.560;10.062;2024-02-14T04:21:23;9.20;99.90
9973;DHT22;5027;53.560;10.062;2024-02-14T04:23:50;9.30;99.90
9973;DHT22;5027;53.560;10.062;2024-02-14T04:26:21;9.30;99.90
9973;DHT22;5027;53.560;10.062;2024-02-14T04:28:48;9.30;99.90
9973;DHT22;5027;53.560;10.062;2024-02-14T04:31:14;9.30;99.90
9973;DHT22;5027;53.560;10.062;2024-02-14T04:33:42;9.30;99.90
9973;DHT22;5027;53.560;10.062;2024-02-14T04:36:10;9.30;99.90
9973;DHT22;5027;53.560;10.062;2024-02-14T04:38:38;9.30;99.90
9973;DHT22;5027;53.560;10.062;2024-02-14T04:41:05;9.30;99.90
9973;DHT22;5027;53.560;10.062;2024-02-14T04:43:32;9.30;99.90
9973;DHT22;5027;53.560;10.062;2024-02-14T04:45:58;9.30;99.90
9973;DHT22;5027;53.560;10.062;2024-02-14T04:48:25;9.30;99.90
9973;DHT22;5027;53.560;10.062;2024-02-14T04:50:53;9.30;99.90
9973;DHT22;5027;53.560;10.062;2024-02-14T04:53:20;9.30;99.90
9973;DHT22;5027;53.560;10.062;2024-02-14T04:55:46;9.30;99.90
9973;DHT22;5027;53.560;10.062;2024-02-14T04:58:13;9.20;99.90
9973;DHT22;5027;53.560;10.062;2024-02-14T05:00:40;9.30;99.90
9973;DHT22;5027;53.560;10.062;2024-02-14T05:03:06;9.30;99.90
9973;DHT22;5027;53.560;10.062;2024-02-14T05:05:34;9.40;99.90
9973;DHT22;5027;53.560;10.062;2024-02-14T05:08:01;9.30;99.90
9973;DHT22;5027;53.560;10.062;2024-02-14T05:10:29;9.30;99.90
9973;DHT22;5027;53.560;10.062;2024-02-14T05:12:55;9.20;99.90
9973;DHT22;5027;53.560;10.062;2024-02-14T05:15:22;9.20;99.90
9973;DHT22;5027;53.560;10.062;2024-02-14T05:17:50;9.20;99.90
9973;DHT22;5027;53.560;10.062;2024-02-14T05:20:17;9.20;99.90
9973;DHT22;5027;53.560;10.062;2024-02-14T05:22:44;9.20;99.90
9973;DHT22;5027;53.560;10.062;2024-02-14T05:25:11;9.20;99.90
9973;DHT22;5027;53.560;10.062;2024-02-14T05:27:38;9.30;99.90
9973;DHT22;5027;53.560;10.062;2024-02-14T05:30:05;9.30;99.90
9973;DHT22;5027;53.560;10.062;2024-02-14T05:32:32;9.30;99.90
9973;DHT22;5027;53.560;10.062;2024-02-14T05:35:00;9.30;99.90
9973;DHT22;5027;53.560;10.062;2024-02-14T05:37:29;9.30;99.90
9973;DHT22;5027;53.560;10.062;2024-02-14T05:39:56;9.30;99.90
9973;DHT22;5027;53.560;10.062;2024-02-14T05:42:22;9.30;99.90
9973;DHT22;5027;53.560;10.062;2024-02-14T05:44:50;9.30;99.90
9973;DHT22;5027;53.560;10.062;2024-02-14T05:47:19;9.30;99.90
9973;DHT22;5027;53.560;10.062;2024-02-14T05:49:46;9.40;99.90
9973;DHT22;5027;53.560;10.062;2024-02-14T05:52:13;9.40;99.90
9973;DHT22;5027;53.560;10.062;2024-02-14T05:54:42;9.40;99.90
9973;DHT22;5027;53.560;10.062;2024-02-14T05:57:09;9.30;99.90
9973;DHT22;5027;53.560;10.062;2024-02-14T05:59:36;9.40;99.90
9973;DHT22;5027;53.560;10.062;2024-02-14T06:02:04;9.50;99.90
9973;DHT22;5027;53.560;10.062;2024-02-14T06:04:32;9.40;99.90
9973;DHT22;5027;53.560;10.062;2024-02-14T06:06:59;9.40;99.90
9973;DHT22;5027;53.560;10.062;2024-02-14T06:09:26;9.40;99.90
9973;DHT22;5027;53.560;10.062;2024-02-14T06:11:53;9.40;99.90
9973;DHT22;5027;53.560;10.062;2024-02-14T06:14:20;9.40;99.90
9973;DHT22;5027;53.560;10.062;2024-02-14T06:16:50;9.40;99.90
9973;DHT22;5027;53.560;10.062;2024-02-14T06:19:17;9.40;99.90
9973;DHT22;5027;53.560;10.062;2024-02-14T06:21:44;9.50;99.90
9973;DHT22;5027;53.560;10.062;2024-02-14T06:24:11;9.50;99.90
9973;DHT22;5027;53.560;10.062;2024-02-14T06:26:40;9.50;99.90
9973;DHT22;5027;53.560;10.062;2024-02-14T06:29:07;9.40;99.90
9973;DHT22;5027;53.560;10.062;2024-02-14T06:31:34;9.50;99.90
9973;DHT22;5027;53.560;10.062;2024-02-14T06:34:00;9.40;99.90
9973;DHT22;5027;53.560;10.062;2024-02-14T06:36:28;9.50;99.90
9973;DHT22;5027;53.560;10.062;2024-02-14T06:38:55;9.40;99.90
9973;DHT22;5027;53.560;10.062;2024-02-14T06:41:22;9.40;99.90
9973;DHT22;5027;53.560;10.062;2024-02-14T06:43:48;9.50;99.90
9973;DHT22;5027;53.560;10.062;2024-02-14T06:46:15;9.40;99.90
9973;DHT22;5027;53.560;10.062;2024-02-14T06:48:43;9.50;99.90
9973;DHT22;5027;53.560;10.062;2024-02-14T06:51:10;9.50;99.90
9973;DHT22;5027;53.560;10.062;2024-02-14T06:53:37;9.50;99.90
9973;DHT22;5027;53.560;10.062;2024-02-14T06:56:05;9.40;99.90
9973;DHT22;5027;53.560;10.062;2024-02-14T06:58:32;9.40;99.90
9973;DHT22;5027;53.560;10.062;2024-02-14T07:00:59;9.50;99.90
9973;DHT22;5027;53.560;10.062;2024-02-14T07:03:29;9.50;99.90
9973;DHT22;5027;53.560;10.062;2024-02-14T07:05:55;9.50;99.90
9973;DHT22;5027;53.560;10.062;2024-02-14T07:08:22;9.50;99.90
9973;DHT22;5027;53.560;10.062;2024-02-14T07:10:50;9.50;99.90
9973;DHT22;5027;53.560;10.062;2024-02-14T07:13:17;9.50;99.90
9973;DHT22;5027;53.560;10.062;2024-02-14T07:15:44;9.50;99.90
9973;DHT22;5027;53.560;10.062;2024-02-14T07:18:11;9.50;99.90
9973;DHT22;5027;53.560;10.062;2024-02-14T07:20:38;9.50;99.90
9973;DHT22;5027;53.560;10.062;2024-02-14T07:23:05;9.50;99.90
9973;DHT22;5027;53.560;10.062;2024-02-14T07:25:32;9.60;99.90
9973;DHT22;5027;53.560;10.062;2024-02-14T07:27:59;9.60;99.90
9973;DHT22;5027;53.560;10.062;2024-02-14T07:30:26;9.50;99.90
9973;DHT22;5027;53.560;10.062;2024-02-14T07:32:52;9.50;99.90
9973;DHT22;5027;53.560;10.062;2024-02-14T07:35:19;9.60;99.90
9973;DHT22;5027;53.560;10.062;2024-02-14T07:37:46;9.60;99.90
9973;DHT22;5027;53.560;10.062;2024-02-14T07:40:14;9.60;99.90
9973;DHT22;5027;53.560;10.062;2024-02-14T07:42:44;9.60;99.90
9973;DHT22;5027;53.560;10.062;2024-02-14T07:45:10;9.60;99.90
9973;DHT22;5027;53.560;10.062;2024-02-14T07:47:41;9.60;99.90
9973;DHT22;5027;53.560;10.062;2024-02-14T07:50:08;9.60;99.90
9973;DHT22;5027;53.560;10.062;2024-02-14T07:52:35;9.60;99.90
9973;DHT22;5027;53.560;10.062;2024-02-14T07:55:03;9.60;99.90
9973;DHT22;5027;53.560;10.062;2024-02-14T07:57:30;9.60;99.90
9973;DHT22;5027;53.560;10.062;2024-02-14T07:59:56;9.60;99.90
9973;DHT22;5027;53.560;10.062;2024-02-14T08:02:23;9.60;99.90
9973;DHT22;5027;53.560;10.062;2024-02-14T08:04:50;9.60;99.90
9973;DHT22;5027;53.560;10.062;2024-02-14T08:07:19;9.70;99.90
9973;DHT22;5027;53.560;10.062;2024-02-14T08:09:46;9.70;99.90
9973;DHT22;5027;53.560;10.062;2024-02-14T08:12:12;9.70;99.90
9973;DHT22;5027;53.560;10.062;2024-02-14T08:14:39;9.70;99.90
9973;DHT22;5027;53.560;10.062;2024-02-14T08:17:06;9.70;99.90
9973;DHT22;5027;53.560;10.062;2024-02-14T08:19:33;9.70;99.90
9973;DHT22;5027;53.560;10.062;2024-02-14T08:22:01;9.80;99.90
9973;DHT22;5027;53.560;10.062;2024-02-14T08:24:29;9.80;99.90
9973;DHT22;5027;53.560;10.062;2024-02-14T08:26:55;9.80;99.90
9973;DHT22;5027;53.560;10.062;2024-02-14T08:29:22;9.80;99.90
9973;DHT22;5027;53.560;10.062;2024-02-14T08:31:49;9.80;99.90
9973;DHT22;5027;53.560;10.062;2024-02-14T08:34:16;9.80;99.90
9973;DHT22;5027;53.560;10.062;2024-02-14T08:36:43;9.80;99.90
9973;DHT22;5027;53.560;10.062;2024-02-14T08:39:10;9.80;99.90
9973;DHT22;5027;53.560;10.062;2024-02-14T08:41:38;9.80;99.90
9973;DHT22;5027;53.560;10.062;2024-02-14T08:44:05;9.80;99.90
9973;DHT22;5027;53.560;10.062;2024-02-14T08:46:32;9.80;99.90
9973;DHT22;5027;53.560;10.062;2024-02-14T08:49:00;9.80;99.90
9973;DHT22;5027;53.560;10.062;2024-02-14T08:51:29;9.80;99.90
9973;DHT22;5027;53.560;10.062;2024-02-14T08:53:55;9.90;99.90
9973;DHT22;5027;53.560;10.062;2024-02-14T08:56:26;9.90;99.90
9973;DHT22;5027;53.560;10.062;2024-02-14T08:58:53;9.80;99.90
9973;DHT22;5027;53.560;10.062;2024-02-14T09:01:19;9.90;99.90
9973;DHT22;5027;53.560;10.062;2024-02-14T09:03:48;9.90;99.90
9973;DHT22;5027;53.560;10.062;2024-02-14T09:06:17;10.00;99.90
9973;DHT22;5027;53.560;10.062;2024-02-14T09:08:45;9.80;99.90
9973;DHT22;5027;53.560;10.062;2024-02-14T09:11:12;9.90;99.90
9973;DHT22;5027;53.560;10.062;2024-02-14T09:13:39;9.90;99.90
9973;DHT22;5027;53.560;10.062;2024-02-14T09:16:10;9.90;99.90
9973;DHT22;5027;53.560;10.062;2024-02-14T09:18:38;9.90;99.90
9973;DHT22;5027;53.560;10.062;2024-02-14T09:21:06;9.90;99.90
9973;DHT22;5027;53.560;10.062;2024-02-14T09:23:33;9.90;99.90
9973;DHT22;5027;53.560;10.062;2024-02-14T09:26:01;10.00;99.90
9973;DHT22;5027;53.560;10.062;2024-02-14T09:28:28;10.00;99.90
9973;DHT22;5027;53.560;10.062;2024-02-14T09:30:55;10.00;99.90
9973;DHT22;5027;53.560;10.062;2024-02-14T09:33:22;10.00;99.90
9973;DHT22;5027;53.560;10.062;2024-02-14T09:35:49;10.00;99.90
9973;DHT22;5027;53.560;10.062;2024-02-14T09:38:18;10.00;99.90
9973;DHT22;5027;53.560;10.062;2024-02-14T09:40:45;10.10;99.90
9973;DHT22;5027;53.560;10.062;2024-02-14T09:45:45;10.20;99.90
9973;DHT22;5027;53.560;10.062;2024-02-14T09:48:13;10.20;99.90
9973;DHT22;5027;53.560;10.062;2024-02-14T09:50:41;10.20;99.90
9973;DHT22;5027;53.560;10.062;2024-02-14T09:53:10;10.20;99.90
9973;DHT22;5027;53.560;10.062;2024-02-14T09:55:37;10.20;99.90
9973;DHT22;5027;53.560;10.062;2024-02-14T09:58:06;10.20;99.90
9973;DHT22;5027;53.560;10.062;2024-02-14T10:00:33;10.30;99.90
9973;DHT22;5027;53.560;10.062;2024-02-14T10:03:01;10.30;99.90
9973;DHT22;5027;53.560;10.062;2024-02-14T10:05:27;10.30;99.90
9973;DHT22;5027;53.560;10.062;2024-02-14T10:07:56;10.20;99.90
9973;DHT22;5027;53.560;10.062;2024-02-14T10:10:25;10.30;99.90
9973;DHT22;5027;53.560;10.062;2024-02-14T10:12:54;10.30;99.90
9973;DHT22;5027;53.560;10.062;2024-02-14T10:15:20;10.30;99.90
9973;DHT22;5027;53.560;10.062;2024-02-14T10:17:47;10.30;99.90
9973;DHT22;5027;53.560;10.062;2024-02-14T10:20:17;10.30;99.90
9973;DHT22;5027;53.560;10.062;2024-02-14T10:22:45;10.40;99.90
9973;DHT22;5027;53.560;10.062;2024-02-14T10:25:12;10.40;99.90
9973;DHT22;5027;53.560;10.062;2024-02-14T10:27:39;10.40;99.90
9973;DHT22;5027;53.560;10.062;2024-02-14T10:30:08;10.50;99.90
9973;DHT22;5027;53.560;10.062;2024-02-14T10:32:39;10.50;99.90
9973;DHT22;5027;53.560;10.062;2024-02-14T10:35:15;10.50;99.90
9973;DHT22;5027;53.560;10.062;2024-02-14T10:37:43;10.50;99.90
9973;DHT22;5027;53.560;10.062;2024-02-14T10:40:10;10.50;99.90
9973;DHT22;5027;53.560;10.062;2024-02-14T10:42:37;10.60;99.90
9973;DHT22;5027;53.560;10.062;2024-02-14T10:45:04;10.60;99.90
9973;DHT22;5027;53.560;10.062;2024-02-14T10:47:35;10.60;99.90
9973;DHT22;5027;53.560;10.062;2024-02-14T10:50:04;10.70;99.90
9973;DHT22;5027;53.560;10.062;2024-02-14T10:52:36;10.70;99.90
9973;DHT22;5027;53.560;10.062;2024-02-14T10:55:07;10.70;99.90
9973;DHT22;5027;53.560;10.062;2024-02-14T10:57:35;10.80;99.90
9973;DHT22;5027;53.560;10.062;2024-02-14T11:00:08;10.70;99.90
9973;DHT22;5027;53.560;10.062;2024-02-14T11:02:41;10.70;99.90
9973;DHT22;5027;53.560;10.062;2024-02-14T11:05:12;10.80;99.90
9973;DHT22;5027;53.560;10.062;2024-02-14T11:07:45;10.80;99.90
9973;DHT22;5027;53.560;10.062;2024-02-14T11:10:15;10.80;99.90
9973;DHT22;5027;53.560;10.062;2024-02-14T11:12:42;10.80;99.90
9973;DHT22;5027;53.560;10.062;2024-02-14T11:15:23;10.90;99.90
9973;DHT22;5027;53.560;10.062;2024-02-14T11:18:04;10.90;99.90
9973;DHT22;5027;53.560;10.062;2024-02-14T11:20:32;10.90;99.90
9973;DHT22;5027;53.560;10.062;2024-02-14T11:23:04;10.90;99.90
9973;DHT22;5027;53.560;10.062;2024-02-14T11:25:33;10.90;99.90
9973;DHT22;5027;53.560;10.062;2024-02-14T11:28:13;10.90;99.90
9973;DHT22;5027;53.560;10.062;2024-02-14T11:30:41;10.90;99.90
9973;DHT22;5027;53.560;10.062;2024-02-14T11:35:48;10.90;99.90
9973;DHT22;5027;53.560;10.062;2024-02-14T11:38:20;11.00;99.90
9973;DHT22;5027;53.560;10.062;2024-02-14T11:40:47;11.00;99.90
9973;DHT22;5027;53.560;10.062;2024-02-14T11:43:19;11.00;99.90
9973;DHT22;5027;53.560;10.062;2024-02-14T11:45:47;11.00;99.90
9973;DHT22;5027;53.560;10.062;2024-02-14T11:48:17;11.00;99.90
9973;DHT22;5027;53.560;10.062;2024-02-14T11:50:45;11.10;99.90
9973;DHT22;5027;53.560;10.062;2024-02-14T11:53:13;11.00;99.90
9973;DHT22;5027;53.560;10.062;2024-02-14T11:55:41;11.10;99.90
9973;DHT22;5027;53.560;10.062;2024-02-14T11:58:09;11.10;99.90
9973;DHT22;5027;53.560;10.062;2024-02-14T12:00:47;11.10;99.90
9973;DHT22;5027;53.560;10.062;2024-02-14T12:03:18;11.10;99.90
9973;DHT22;5027;53.560;10.062;2024-02-14T12:05:46;11.10;99.90
9973;DHT22;5027;53.560;10.062;2024-02-14T12:08:15;11.10;99.90
9973;DHT22;5027;53.560;10.062;2024-02-14T12:10:43;11.10;99.90
9973;DHT22;5027;53.560;10.062;2024-02-14T12:13:11;11.20;99.90
9973;DHT22;5027;53.560;10.062;2024-02-14T12:15:40;11.10;99.90
9973;DHT22;5027;53.560;10.062;2024-02-14T12:18:11;11.10;99.90
9973;DHT22;5027;53.560;10.062;2024-02-14T12:20:38;11.10;99.90
9973;DHT22;5027;53.560;10.062;2024-02-14T12:23:06;11.20;99.90
9973;DHT22;5027;53.560;10.062;2024-02-14T12:25:33;11.20;99.90
9973;DHT22;5027;53.560;10.062;2024-02-14T12:28:00;11.20;99.90
9973;DHT22;5027;53.560;10.062;2024-02-14T12:30:46;11.10;99.90
9973;DHT22;5027;53.560;10.062;2024-02-14T12:33:13;11.20;99.90
9973;DHT22;5027;53.560;10.062;2024-02-14T12:35:42;11.20;99.90
9973;DHT22;5027;53.560;10.062;2024-02-14T12:38:11;11.20;99.90
9973;DHT22;5027;53.560;10.062;2024-02-14T12:40:39;11.20;99.90
9973;DHT22;5027;53.560;10.062;2024-02-14T12:43:09;11.40;99.90
9973;DHT22;5027;53.560;10.062;2024-02-14T12:45:37;11.40;99.90
9973;DHT22;5027;53.560;10.062;2024-02-14T12:48:08;11.30;99.90
9973;DHT22;5027;53.560;10.062;2024-02-14T12:50:36;11.30;99.90
9973;DHT22;5027;53.560;10.062;2024-02-14T12:53:06;11.40;99.90
9973;DHT22;5027;53.560;10.062;2024-02-14T12:55:34;11.50;99.90
9973;DHT22;5027;53.560;10.062;2024-02-14T12:58:01;11.50;99.90
9973;DHT22;5027;53.560;10.062;2024-02-14T13:00:28;11.70;99.90
9973;DHT22;5027;53.560;10.062;2024-02-14T13:02:56;11.80;99.90
9973;DHT22;5027;53.560;10.062;2024-02-14T13:05:23;11.80;99.90
9973;DHT22;5027;53.560;10.062;2024-02-14T13:07:50;11.80;99.90
9973;DHT22;5027;53.560;10.062;2024-02-14T13:10:17;11.70;99.90
9973;DHT22;5027;53.560;10.062;2024-02-14T13:12:44;11.70;99.90
9973;DHT22;5027;53.560;10.062;2024-02-14T13:15:12;11.60;99.90
9973;DHT22;5027;53.560;10.062;2024-02-14T13:17:38;11.60;99.90
9973;DHT22;5027;53.560;10.062;2024-02-14T13:20:06;11.70;99.90
9973;DHT22;5027;53.560;10.062;2024-02-14T13:22:33;11.90;99.90
9973;DHT22;5027;53.560;10.062;2024-02-14T13:24:59;11.80;99.90
9973;DHT22;5027;53.560;10.062;2024-02-14T13:27:31;11.80;99.90
9973;DHT22;5027;53.560;10.062;2024-02-14T13:29:58;11.70;99.90
9973;DHT22;5027;53.560;10.062;2024-02-14T13:32:25;11.80;99.90
9973;DHT22;5027;53.560;10.062;2024-02-14T13:34:51;11.70;99.90
9973;DHT22;5027;53.560;10.062;2024-02-14T13:37:18;11.70;99.90
9973;DHT22;5027;53.560;10.062;2024-02-14T13:39:46;11.70;99.90
9973;DHT22;5027;53.560;10.062;2024-02-14T13:42:13;11.60;99.90
9973;DHT22;5027;53.560;10.062;2024-02-14T13:44:40;11.60;99.90
9973;DHT22;5027;53.560;10.062;2024-02-14T13:47:07;11.70;99.90
9973;DHT22;5027;53.560;10.062;2024-02-14T13:49:37;11.70;99.90
9973;DHT22;5027;53.560;10.062;2024-02-14T13:52:04;11.70;99.90
9973;DHT22;5027;53.560;10.062;2024-02-14T13:54:31;11.70;99.90
9973;DHT22;5027;53.560;10.062;2024-02-14T13:56:58;11.60;99.90
9973;DHT22;5027;53.560;10.062;2024-02-14T13:59:25;11.60;99.90
9973;DHT22;5027;53.560;10.062;2024-02-14T14:01:52;11.60;99.90
9973;DHT22;5027;53.560;10.062;2024-02-14T14:04:19;11.50;99.90
9973;DHT22;5027;53.560;10.062;2024-02-14T14:06:47;11.60;99.90
9973;DHT22;5027;53.560;10.062;2024-02-14T14:09:14;11.50;99.90
9973;DHT22;5027;53.560;10.062;2024-02-14T14:11:44;11.50;99.90
9973;DHT22;5027;53.560;10.062;2024-02-14T14:14:12;11.50;99.90
9973;DHT22;5027;53.560;10.062;2024-02-14T14:16:44;11.60;99.90
9973;DHT22;5027;53.560;10.062;2024-02-14T14:19:11;11.50;99.90
9973;DHT22;5027;53.560;10.062;2024-02-14T14:21:38;11.50;99.90
9973;DHT22;5027;53.560;10.062;2024-02-14T14:24:05;11.50;99.90
9973;DHT22;5027;53.560;10.062;2024-02-14T14:26:33;11.70;99.90
9973;DHT22;5027;53.560;10.062;2024-02-14T14:29:02;11.70;99.90
9973;DHT22;5027;53.560;10.062;2024-02-14T14:31:28;11.60;99.90
9973;DHT22;5027;53.560;10.062;2024-02-14T14:33:56;11.60;99.90
9973;DHT22;5027;53.560;10.062;2024-02-14T14:36:24;11.60;99.90
9973;DHT22;5027;53.560;10.062;2024-02-14T14:38:53;11.50;99.90
9973;DHT22;5027;53.560;10.062;2024-02-14T14:41:25;11.60;99.90
9973;DHT22;5027;53.560;10.062;2024-02-14T14:43:55;11.60;99.90
9973;DHT22;5027;53.560;10.062;2024-02-14T14:46:26;11.60;99.90
9973;DHT22;5027;53.560;10.062;2024-02-14T14:48:53;11.60;99.90
9973;DHT22;5027;53.560;10.062;2024-02-14T14:51:20;11.60;99.90
9973;DHT22;5027;53.560;10.062;2024-02-14T14:53:47;11.60;99.90
9973;DHT22;5027;53.560;10.062;2024-02-14T14:56:14;11.50;99.90
9973;DHT22;5027;53.560;10.062;2024-02-14T14:58:40;11.60;99.90
9973;DHT22;5027;53.560;10.062;2024-02-14T15:01:09;11.50;99.90
9973;DHT22;5027;53.560;10.062;2024-02-14T15:03:35;11.60;99.90
9973;DHT22;5027;53.560;10.062;2024-02-14T15:06:02;11.60;99.90
9973;DHT22;5027;53.560;10.062;2024-02-14T15:08:29;11.60;99.90
9973;DHT22;5027;53.560;10.062;2024-02-14T15:10:57;11.70;99.90
9973;DHT22;5027;53.560;10.062;2024-02-14T15:13:24;11.80;99.90
9973;DHT22;5027;53.560;10.062;2024-02-14T15:15:51;11.80;99.90
9973;DHT22;5027;53.560;10.062;2024-02-14T15:18:19;11.70;99.90
9973;DHT22;5027;53.560;10.062;2024-02-14T15:20:46;11.70;99.90
9973;DHT22;5027;53.560;10.062;2024-02-14T15:23:13;11.60;99.90
9973;DHT22;5027;53.560;10.062;2024-02-14T15:25:40;11.60;99.90
9973;DHT22;5027;53.560;10.062;2024-02-14T15:28:08;11.60;99.90
9973;DHT22;5027;53.560;10.062;2024-02-14T15:30:40;11.50;99.90
9973;DHT22;5027;53.560;10.062;2024-02-14T15:33:25;11.60;99.90
9973;DHT22;5027;53.560;10.062;2024-02-14T15:35:55;11.60;99.90
9973;DHT22;5027;53.560;10.062;2024-02-14T15:38:24;11.70;99.90
9973;DHT22;5027;53.560;10.062;2024-02-14T15:40:53;11.60;99.90
9973;DHT22;5027;53.560;10.062;2024-02-14T15:43:21;11.60;99.90
9973;DHT22;5027;53.560;10.062;2024-02-14T15:45:48;11.60;99.90
9973;DHT22;5027;53.560;10.062;2024-02-14T15:48:15;11.60;99.90
9973;DHT22;5027;53.560;10.062;2024-02-14T15:50:43;11.60;99.90
9973;DHT22;5027;53.560;10.062;2024-02-14T15:53:10;11.60;99.90
9973;DHT22;5027;53.560;10.062;2024-02-14T15:55:37;11.60;99.90
9973;DHT22;5027;53.560;10.062;2024-02-14T15:58:04;11.60;99.90
9973;DHT22;5027;53.560;10.062;2024-02-14T16:00:31;11.50;99.90
9973;DHT22;5027;53.560;10.062;2024-02-14T16:02:58;11.60;99.90
9973;DHT22;5027;53.560;10.062;2024-02-14T16:05:26;11.60;99.90